Skip to Main Content
SEARCH:
Location Air RH Dwp Precip Type Wind Speed Wind Gust Direction Pavement Temperature Date/Time
Hatem Bridge US 40 E/B - - - No Data Available - - No Data Available -
I-270 at I-370 67 87 64 None Calm Calm N 74 - 75 9/25/2017 3:35:00 AM
I-270 at MD-109 63 100 63 None Calm Calm E 70 - 70 9/25/2017 3:35:00 AM
I-495 at American Legion Bridge 64 100 64 None Calm Calm N 71 - 71 9/25/2017 3:35:00 AM
I-68 at MD-219 66 88 62 None 5 mph 9 mph E 68 - 68 9/25/2017 3:35:00 AM
I-68 at Savage Mt 62 100 62 None Calm Calm W 65 - 66 9/25/2017 3:35:00 AM
I-68 at Sideling Hill 71 88 67 None Calm Calm N 73 - 74 9/25/2017 3:35:00 AM
I-68 at WV Line 56 99 56 None Calm Calm NW 65 - 65 9/25/2017 3:35:00 AM
I-695 at I-83 65 94 63 None Calm Calm N 72 - 73 9/25/2017 3:35:00 AM
I-70 at Fred-Wash Co. - - - No Data Available - - No Data Available -
I-70 at I-695 65 97 64 None Calm Calm SW 71 - 75 9/25/2017 3:35:00 AM
I-70 at I-81 65 100 65 None Calm Calm NE - 9/25/2017 3:35:00 AM
I-70 at MD-27 71 84 66 None Calm Calm N 73 - 74 9/25/2017 3:35:00 AM
I-70 at MD-32 62 97 62 None Calm Calm N 71 - 71 9/25/2017 3:35:00 AM
I-83 at MD-137 65 100 65 None Calm Calm N 71 - 71 9/25/2017 3:35:00 AM
I-95 at I-695 NE 69 88 65 None Calm Calm NE 74 - 77 9/25/2017 3:36:00 AM
I-95 at Patuxent River 68 96 67 None Calm 6 mph NE 71 - 72 9/25/2017 3:35:00 AM
I-95 at Tydings Bridge 69 94 68 None Calm Calm N - 9/25/2017 3:35:00 AM
I-95/495 at I-295 79 65 66 None Calm Calm E 76 - 77 9/25/2017 3:35:00 AM
I-97 at MD-100 67 90 64 None Calm Calm W 72 - 73 9/25/2017 3:35:00 AM
I-97 at MD-32 64 95 63 None 8 mph 9 mph N 72 - 73 9/25/2017 3:35:00 AM
MD 20 at MD 21 65 94 64 None Calm Calm N 73 - 73 9/25/2017 3:35:00 AM
MD 231 at Patuxent River 64 99 64 None Calm 4 mph N 71 - 73 9/25/2017 3:35:00 AM
MD 260 at Cox Rd 67 95 65 None Calm Calm W 75 - 75 9/25/2017 3:35:00 AM
MD-135 at Salt Dome 64 95 63 None Calm 6 mph E 68 - 68 9/25/2017 3:35:00 AM
MD-140 at MD-97 63 99 63 None Calm Calm NE 73 - 73 9/25/2017 3:35:00 AM
MD-200 EB at Bonifant Rd 63 99 63 None Calm Calm N 66 - 69 9/25/2017 3:35:00 AM
MD-200 WB at Muncaster Mill Rd 62 97 61 None Calm Calm N 69 - 70 9/25/2017 3:35:00 AM
MD-213 at Sassafras River 68 100 68 None Calm Calm E 74 - 74 9/25/2017 3:35:00 AM
MD-24 at Rock St Park 64 100 64 None Calm Calm N 66 - 66 9/25/2017 3:35:00 AM
MD-30 at PA Line 73 79 66 None Calm Calm W 75 - 75 9/25/2017 3:35:00 AM
MD-301 at MD-305 64 96 63 None Calm Calm S 71 - 73 9/25/2017 3:35:00 AM
MD-33 at Knapps Narrows Drawbridge 69 88 65 None Calm Calm N 77 - 77 9/25/2017 3:35:00 AM
MD-344 at MD-224 66 96 64 None Calm Calm N - 9/25/2017 3:35:00 AM
MD-4 at Patuxent River 68 96 67 None - - No Data Available 74 - 74 9/25/2017 3:35:00 AM
MD-404 at Choptank River 63 95 62 None Calm Calm N 70 - 72 9/25/2017 3:35:00 AM
MD-43 at MD-150 - - - No Data Available - - No Data Available -
MD-51 at Oldtown Salt Dome 59 100 59 None Calm Calm N 73 - 73 9/25/2017 3:35:00 AM
MD-64 at MD-418 - - - No Data Available - - No Data Available -
US-1 at Baltimore / Harford Co. Line 64 98 63 None Calm Calm NW 69 - 70 9/25/2017 3:35:00 AM
US-1 at Conowingo Dam 68 99 68 None Calm Calm N 74 - 74 9/25/2017 3:35:00 AM
US-13 at US-113 62 97 61 None Calm 4 mph N 73 - 73 9/25/2017 3:35:00 AM
US-13 at US-50 - - - No Data Available - - No Data Available -
US-15 at MD-140 63 97 62 None Calm Calm W 72 - 73 9/25/2017 3:35:00 AM
US-301 at MD-5 66 100 66 None Calm Calm N 73 - 73 9/25/2017 3:35:00 AM
US-301 at Potomac 72 83 67 None Calm Calm NE 71 - 73 9/25/2017 3:35:00 AM
US-301 on HWN Bridge 72 83 67 None 6 mph 7 mph NW 71 - 71 9/25/2017 3:38:00 AM
US-340 at MD-180 63 94 61 None Calm Calm N 70 - 73 9/25/2017 3:35:00 AM
US-50 at Choptank 67 100 67 None Calm Calm NE 72 - 73 9/25/2017 3:35:00 AM
US-50 at I-95 69 93 67 None Calm Calm N 74 - 77 9/25/2017 3:35:00 AM
US-50 at MD-2 68 98 68 None Calm Calm N 70 - 75 9/25/2017 3:35:00 AM
US-50 at MD-331 68 84 63 None Calm Calm N 72 - 74 9/25/2017 3:35:00 AM
US-50 at OC Drawbridge 71 91 68 None Calm 6 mph NE 72 - 72 9/25/2017 3:35:00 AM
US-50 at Table Rock Rd 61 100 61 None Calm 4 mph E 67 - 67 9/25/2017 3:35:00 AM
US-50 Kent Narrow Bridge 71 95 69 None Calm Calm SE 75 - 75 9/25/2017 3:35:00 AM
WPL Pier 31 - - - No Data Available - - No Data Available - 9/25/2017 3:35:00 AM
Location Air RH Dwp Precip Type Wind Speed Wind Gust Direction Pavement Temperature Date/Time